Time;durP1;ratioP1;P1;durP2;ratioP2;P2;SDS_P1;SDS_P2;PMS_P1;PMS_P2;Temp;Humidity;BMP_temperature;BMP_pressure;BME280_temperature;BME280_humidity;BME280_pressure;Samples;Min_cycle;Max_cycle;Signal;HPM_P1;HPM_P2
2023/03/13 00:01:38;;;;;;;6.57;2.85;;;;;;;;;;10355291;28;20233;-76
2023/03/13 00:06:40;;;;;;;8.52;2.10;;;;;;;;;;10356306;28;20234;-75
2023/03/13 00:11:41;;;;;;;5.50;2.60;;;;;;;;;;10356321;28;20231;-76
2023/03/13 00:16:42;;;;;;;4.47;1.80;;;;;;;;;;10345244;28;20469;-76
2023/03/13 00:21:42;;;;;;;8.45;2.42;;;;;;;;;;10372527;28;20223;-76
2023/03/13 00:26:44;;;;;;;3.85;1.35;;;;;;;;;;10332433;28;20227;-74
2023/03/13 00:31:45;;;;;;;7.70;2.10;;;;;;;;;;10337833;28;20302;-76
2023/03/13 00:36:46;;;;;;;5.15;1.70;;;;;;;;;;10337754;28;20219;-78
2023/03/13 00:41:47;;;;;;;4.07;1.73;;;;;;;;;;10353410;28;20219;-74
2023/03/13 00:46:48;;;;;;;6.28;2.03;;;;;;;;;;10358288;28;20227;-76
2023/03/13 00:51:49;;;;;;;7.75;2.33;;;;;;;;;;10357401;28;23694;-78
2023/03/13 00:56:50;;;;;;;9.93;2.38;;;;;;;;;;10363709;28;20216;-76
2023/03/13 01:01:51;;;;;;;2.28;1.80;;;;;;;;;;10368899;28;20230;-77
2023/03/13 01:06:52;;;;;;;4.20;1.63;;;;;;;;;;10342153;28;20322;-77
2023/03/13 01:11:53;;;;;;;5.45;1.50;;;;;;;;;;10351823;28;20278;-77
2023/03/13 01:16:54;;;;;;;8.88;1.75;;;;;;;;;;10354790;28;20663;-77
2023/03/13 01:21:55;;;;;;;5.03;1.70;;;;;;;;;;10373759;28;20219;-77
2023/03/13 01:26:58;;;;;;;12.65;1.70;;;;;;;;;;10376599;28;20713;-78
2023/03/13 01:31:59;;;;;;;7.15;1.42;;;;;;;;;;10344197;28;20216;-76
2023/03/13 01:37:01;;;;;;;4.93;1.30;;;;;;;;;;10331169;28;20223;-77
2023/03/13 01:42:03;;;;;;;1.67;0.95;;;;;;;;;;10364561;28;20228;-77
2023/03/13 01:47:04;;;;;;;3.70;1.10;;;;;;;;;;10320213;28;20700;-75
2023/03/13 01:52:30;;;;;;;14.02;2.15;;;;;;;;;;10345346;28;20652;-77
2023/03/13 01:57:49;;;;;;;9.25;2.15;;;;;;;;;;10349908;28;20231;-77
2023/03/13 02:02:51;;;;;;;5.47;1.88;;;;;;;;;;10330093;28;20220;-77
2023/03/13 02:07:58;;;;;;;4.13;1.80;;;;;;;;;;10339898;28;20234;-78
2023/03/13 02:13:00;;;;;;;6.43;1.73;;;;;;;;;;10353404;28;20228;-78
2023/03/13 02:18:01;;;;;;;9.52;1.75;;;;;;;;;;10339517;28;20339;-78
2023/03/13 02:23:06;;;;;;;5.97;1.58;;;;;;;;;;10349339;28;20230;-77
2023/03/13 02:28:08;;;;;;;6.95;1.58;;;;;;;;;;10321462;28;20788;-78
2023/03/13 02:33:12;;;;;;;6.20;1.10;;;;;;;;;;10341294;28;20219;-77
2023/03/13 02:38:16;;;;;;;3.15;1.23;;;;;;;;;;10334078;28;20327;-77
2023/03/13 02:43:19;;;;;;;5.20;1.75;;;;;;;;;;10352399;28;20231;-78
2023/03/13 02:48:30;;;;;;;6.07;1.85;;;;;;;;;;10319378;28;20297;-76
2023/03/13 02:53:33;;;;;;;2.58;1.20;;;;;;;;;;10348964;28;20629;-78
2023/03/13 02:58:37;;;;;;;4.53;2.03;;;;;;;;;;10339837;28;20222;-75
2023/03/13 03:03:39;;;;;;;6.18;1.63;;;;;;;;;;10345609;28;20572;-76
2023/03/13 03:08:42;;;;;;;7.18;1.55;;;;;;;;;;10367131;28;20232;-77
2023/03/13 03:13:45;;;;;;;9.40;1.35;;;;;;;;;;10353837;28;20302;-76
2023/03/13 03:18:48;;;;;;;1.42;1.00;;;;;;;;;;10321821;28;20228;-79
2023/03/13 03:23:50;;;;;;;7.47;1.60;;;;;;;;;;10348578;28;20693;-77
2023/03/13 03:28:51;;;;;;;1.90;0.85;;;;;;;;;;10335881;28;20232;-78
2023/03/13 03:33:52;;;;;;;7.72;1.50;;;;;;;;;;10304741;28;20230;-79
2023/03/13 03:38:55;;;;;;;4.90;1.45;;;;;;;;;;10303878;28;20326;-76
2023/03/13 03:44:00;;;;;;;9.35;0.98;;;;;;;;;;10304881;28;20653;-77
2023/03/13 03:49:09;;;;;;;5.35;1.13;;;;;;;;;;10335571;28;20227;-78
2023/03/13 03:54:10;;;;;;;7.22;1.85;;;;;;;;;;10345029;28;20215;-78
2023/03/13 03:59:12;;;;;;;8.38;1.73;;;;;;;;;;10349984;28;20233;-79
2023/03/13 04:04:17;;;;;;;5.53;1.42;;;;;;;;;;10350842;28;20227;-77
2023/03/13 04:09:22;;;;;;;4.10;1.02;;;;;;;;;;10321922;28;20239;-76
2023/03/13 04:14:24;;;;;;;9.90;2.03;;;;;;;;;;10334538;28;20220;-75
2023/03/13 04:19:25;;;;;;;9.32;1.83;;;;;;;;;;10318746;28;20240;-79
2023/03/13 04:24:27;;;;;;;10.02;1.90;;;;;;;;;;10344508;28;20309;-79
2023/03/13 04:29:29;;;;;;;4.18;1.70;;;;;;;;;;10330274;28;20231;-76
2023/03/13 04:34:43;;;;;;;6.28;1.45;;;;;;;;;;10333275;28;20218;-79
2023/03/13 04:40:13;;;;;;;8.63;2.10;;;;;;;;;;10329772;28;20704;-77
2023/03/13 04:45:34;;;;;;;7.80;1.88;;;;;;;;;;10349087;28;20238;-76
2023/03/13 04:51:02;;;;;;;5.00;1.90;;;;;;;;;;10331750;28;20639;-80
2023/03/13 04:56:28;;;;;;;11.90;2.28;;;;;;;;;;10332069;28;20243;-77
2023/03/13 05:01:44;;;;;;;9.95;1.67;;;;;;;;;;10311823;28;20235;-78
2023/03/13 05:07:06;;;;;;;5.03;1.83;;;;;;;;;;10302355;28;20224;-76
2023/03/13 05:12:26;;;;;;;4.47;1.45;;;;;;;;;;10348503;28;20352;-77
2023/03/13 05:17:36;;;;;;;10.43;2.10;;;;;;;;;;10345061;28;20224;-79
2023/03/13 05:22:51;;;;;;;4.28;1.42;;;;;;;;;;10337423;28;21241;-79
2023/03/13 05:28:24;;;;;;;6.72;1.10;;;;;;;;;;10333023;28;20505;-79
2023/03/13 05:33:48;;;;;;;2.67;1.27;;;;;;;;;;10358164;28;20597;-79
2023/03/13 05:39:03;;;;;;;6.38;1.35;;;;;;;;;;10360193;28;20231;-80
2023/03/13 05:44:25;;;;;;;8.95;1.70;;;;;;;;;;10356623;28;20227;-80
2023/03/13 05:49:52;;;;;;;3.30;1.58;;;;;;;;;;10364283;28;20322;-79
2023/03/13 05:55:08;;;;;;;14.00;2.70;;;;;;;;;;10330745;28;20212;-79
2023/03/13 06:00:32;;;;;;;9.98;2.50;;;;;;;;;;10339148;28;20220;-80
2023/03/13 06:05:59;;;;;;;2.55;1.25;;;;;;;;;;10328996;28;20223;-79
2023/03/13 06:11:11;;;;;;;4.30;1.60;;;;;;;;;;10310195;28;20230;-78
2023/03/13 06:16:12;;;;;;;5.93;2.13;;;;;;;;;;10304387;28;20216;-79
2023/03/13 06:21:17;;;;;;;5.45;1.42;;;;;;;;;;10323841;28;20373;-75
2023/03/13 06:26:18;;;;;;;9.52;1.67;;;;;;;;;;10349158;28;20603;-78
2023/03/13 06:31:19;;;;;;;5.65;1.85;;;;;;;;;;10316385;28;20226;-78
2023/03/13 06:36:21;;;;;;;10.35;1.80;;;;;;;;;;10291512;28;20270;-80
2023/03/13 06:41:23;;;;;;;7.00;2.22;;;;;;;;;;10327404;28;20246;-79
2023/03/13 06:46:24;;;;;;;6.93;1.65;;;;;;;;;;10334642;28;20712;-79
2023/03/13 06:51:25;;;;;;;9.07;2.33;;;;;;;;;;10326057;28;20227;-79
2023/03/13 06:56:27;;;;;;;10.15;2.38;;;;;;;;;;10321181;28;20266;-78
2023/03/13 07:01:27;;;;;;;5.45;1.73;;;;;;;;;;10340777;28;20322;-75
2023/03/13 07:06:29;;;;;;;3.08;2.33;;;;;;;;;;10330645;28;20231;-77
2023/03/13 07:11:30;;;;;;;11.95;2.75;;;;;;;;;;10359426;28;20223;-79
2023/03/13 07:16:31;;;;;;;5.72;1.95;;;;;;;;;;10362124;28;20223;-76
2023/03/13 07:21:32;;;;;;;3.70;1.40;;;;;;;;;;10339297;28;20223;-79
2023/03/13 07:26:33;;;;;;;3.20;1.67;;;;;;;;;;10310524;28;20934;-77
2023/03/13 07:31:34;;;;;;;3.53;1.30;;;;;;;;;;10330173;28;20235;-79
2023/03/13 07:36:35;;;;;;;8.98;1.20;;;;;;;;;;10324087;28;20222;-79
2023/03/13 07:41:36;;;;;;;7.03;2.03;;;;;;;;;;10318207;28;20223;-75
2023/03/13 07:46:37;;;;;;;5.97;1.75;;;;;;;;;;10337656;28;20227;-76
2023/03/13 07:51:38;;;;;;;4.00;1.70;;;;;;;;;;10349744;28;20223;-78
2023/03/13 07:56:39;;;;;;;2.40;1.33;;;;;;;;;;10325767;28;20216;-77
2023/03/13 08:01:40;;;;;;;2.90;0.93;;;;;;;;;;10326185;28;20237;-79
2023/03/13 08:06:41;;;;;;;0.50;0.50;;;;;;;;;;10303874;28;20251;-79
2023/03/13 08:11:45;;;;;;;5.35;1.17;;;;;;;;;;10331348;28;20223;-79
2023/03/13 08:16:46;;;;;;;3.33;1.40;;;;;;;;;;10339397;28;21254;-78
2023/03/13 08:21:47;;;;;;;2.65;1.00;;;;;;;;;;10332404;28;20234;-77
2023/03/13 08:26:48;;;;;;;2.60;1.10;;;;;;;;;;10322329;28;20231;-78
2023/03/13 08:31:53;;;;;;;3.88;0.90;;;;;;;;;;10321970;28;20930;-80
2023/03/13 08:36:55;;;;;;;2.08;0.50;;;;;;;;;;10316030;28;20712;-77
2023/03/13 08:41:56;;;;;;;2.00;0.75;;;;;;;;;;10346007;28;20257;-79
2023/03/13 08:46:58;;;;;;;4.05;0.60;;;;;;;;;;10323403;28;20242;-78
2023/03/13 08:51:59;;;;;;;3.10;0.55;;;;;;;;;;10318346;28;20882;-79
2023/03/13 08:57:00;;;;;;;0.40;0.40;;;;;;;;;;10344895;28;20224;-80
2023/03/13 09:02:02;;;;;;;2.33;0.40;;;;;;;;;;10332902;28;20544;-79
2023/03/13 09:07:04;;;;;;;1.38;0.38;;;;;;;;;;10361163;28;20236;-79
2023/03/13 09:12:05;;;;;;;0.30;0.30;;;;;;;;;;10366984;28;20698;-79
2023/03/13 09:17:06;;;;;;;0.30;0.30;;;;;;;;;;10359975;28;20234;-80
2023/03/13 09:22:08;;;;;;;1.17;0.47;;;;;;;;;;10353445;28;20293;-79
2023/03/13 09:27:09;;;;;;;1.80;0.75;;;;;;;;;;10377906;28;20224;-79
2023/03/13 09:32:10;;;;;;;0.30;0.25;;;;;;;;;;10351980;28;20223;-77
2023/03/13 09:37:14;;;;;;;0.60;0.30;;;;;;;;;;10343865;28;20227;-80
2023/03/13 09:42:17;;;;;;;0.38;0.35;;;;;;;;;;10370878;28;20239;-78
2023/03/13 09:47:21;;;;;;;0.68;0.45;;;;;;;;;;10358473;28;20258;-78
2023/03/13 09:52:26;;;;;;;0.70;0.70;;;;;;;;;;10346998;28;20367;-78
2023/03/13 09:57:34;;;;;;;0.68;0.68;;;;;;;;;;10336305;28;20220;-78
2023/03/13 10:02:36;;;;;;;0.52;0.52;;;;;;;;;;10335831;28;20219;-77
2023/03/13 10:07:37;;;;;;;0.40;0.40;;;;;;;;;;10355743;28;20341;-77
2023/03/13 10:12:44;;;;;;;0.73;0.30;;;;;;;;;;10357428;28;21408;-76
2023/03/13 10:17:45;;;;;;;1.10;0.30;;;;;;;;;;10336427;28;20247;-79
2023/03/13 10:22:47;;;;;;;0.20;0.20;;;;;;;;;;10337688;28;20280;-80
2023/03/13 10:27:49;;;;;;;0.30;0.28;;;;;;;;;;10351499;28;20325;-79
2023/03/13 10:32:50;;;;;;;0.90;0.30;;;;;;;;;;10318936;28;20219;-78
2023/03/13 10:37:59;;;;;;;1.42;0.20;;;;;;;;;;10333408;28;20286;-78
2023/03/13 10:43:02;;;;;;;1.33;0.40;;;;;;;;;;10344324;28;20266;-78
2023/03/13 10:48:11;;;;;;;1.08;0.55;;;;;;;;;;10337348;28;20223;-78
2023/03/13 10:53:30;;;;;;;0.43;0.30;;;;;;;;;;10359156;28;20273;-78
2023/03/13 10:58:36;;;;;;;0.30;0.30;;;;;;;;;;10340730;28;20322;-79
2023/03/13 11:03:38;;;;;;;1.05;0.40;;;;;;;;;;10352705;28;20223;-77
2023/03/13 11:08:41;;;;;;;1.27;0.30;;;;;;;;;;10327929;28;20756;-75
2023/03/13 11:13:43;;;;;;;0.32;0.32;;;;;;;;;;10334671;28;20616;-78
2023/03/13 11:18:44;;;;;;;1.08;0.40;;;;;;;;;;10324294;28;20232;-77
2023/03/13 11:23:53;;;;;;;0.30;0.30;;;;;;;;;;10290839;28;20223;-75
2023/03/13 11:29:01;;;;;;;0.52;0.22;;;;;;;;;;10316779;28;20232;-79
2023/03/13 11:34:02;;;;;;;1.42;0.43;;;;;;;;;;10319044;28;20595;-80
2023/03/13 11:39:18;;;;;;;0.57;0.57;;;;;;;;;;10342044;28;20216;-78
2023/03/13 11:44:24;;;;;;;0.70;0.30;;;;;;;;;;10359300;28;20223;-80
2023/03/13 11:49:39;;;;;;;0.60;0.60;;;;;;;;;;10335327;28;20227;-77
2023/03/13 11:54:59;;;;;;;1.65;0.40;;;;;;;;;;10348569;28;20273;-78
2023/03/13 12:00:06;;;;;;;1.30;0.60;;;;;;;;;;10330978;28;20224;-78
2023/03/13 12:05:14;;;;;;;0.95;0.38;;;;;;;;;;10342339;28;20307;-77
2023/03/13 12:10:17;;;;;;;0.50;0.50;;;;;;;;;;10341855;28;20226;-78
2023/03/13 12:15:26;;;;;;;0.22;0.22;;;;;;;;;;10355895;28;20204;-79
2023/03/13 12:20:40;;;;;;;0.32;0.32;;;;;;;;;;10346881;28;20224;-78
2023/03/13 12:25:47;;;;;;;0.30;0.30;;;;;;;;;;10324790;28;20231;-77
2023/03/13 12:30:52;;;;;;;2.17;0.30;;;;;;;;;;10342130;28;20223;-79
2023/03/13 12:36:03;;;;;;;0.65;0.20;;;;;;;;;;10344100;28;20274;-80
2023/03/13 12:41:28;;;;;;;1.10;0.30;;;;;;;;;;10353315;28;20227;-79
2023/03/13 12:46:32;;;;;;;2.42;0.30;;;;;;;;;;10355928;28;20608;-78
2023/03/13 12:51:52;;;;;;;0.52;0.22;;;;;;;;;;10342778;28;20250;-80
2023/03/13 12:56:59;;;;;;;0.55;0.30;;;;;;;;;;10342952;28;20261;-78
2023/03/13 13:02:02;;;;;;;0.20;0.20;;;;;;;;;;10337140;28;20235;-78
2023/03/13 13:07:07;;;;;;;0.38;0.38;;;;;;;;;;10352861;28;20310;-78
2023/03/13 13:12:22;;;;;;;0.90;0.30;;;;;;;;;;10373830;28;20215;-78
2023/03/13 13:17:26;;;;;;;0.20;0.20;;;;;;;;;;10380573;28;20232;-79
2023/03/13 13:22:35;;;;;;;0.30;0.30;;;;;;;;;;10358564;28;20223;-79
2023/03/13 13:27:36;;;;;;;0.47;0.30;;;;;;;;;;10346318;28;20244;-79
2023/03/13 13:32:41;;;;;;;0.20;0.20;;;;;;;;;;10350635;28;20902;-79
2023/03/13 13:37:42;;;;;;;0.73;0.40;;;;;;;;;;10314914;28;20595;-77
2023/03/13 13:42:54;;;;;;;0.60;0.40;;;;;;;;;;10351005;28;20286;-79
2023/03/13 13:48:14;;;;;;;0.45;0.43;;;;;;;;;;10335159;28;20227;-79
2023/03/13 13:53:32;;;;;;;0.30;0.30;;;;;;;;;;10362827;28;20325;-79
2023/03/13 13:58:38;;;;;;;0.95;0.30;;;;;;;;;;10332411;28;20250;-78
2023/03/13 14:03:41;;;;;;;0.52;0.25;;;;;;;;;;10337412;28;20282;-77
2023/03/13 14:08:43;;;;;;;0.30;0.30;;;;;;;;;;10323338;28;20232;-79
2023/03/13 14:13:44;;;;;;;0.20;0.20;;;;;;;;;;10356048;28;20239;-76
2023/03/13 14:18:46;;;;;;;1.38;0.20;;;;;;;;;;10346545;28;20246;-78
2023/03/13 14:23:47;;;;;;;2.38;0.30;;;;;;;;;;10361103;28;20211;-76
2023/03/13 14:28:59;;;;;;;0.20;0.20;;;;;;;;;;10355253;28;20227;-76
2023/03/13 14:34:01;;;;;;;0.20;0.20;;;;;;;;;;10365956;28;20303;-77
2023/03/13 14:39:02;;;;;;;0.10;0.10;;;;;;;;;;10329265;28;20235;-79
2023/03/13 14:44:04;;;;;;;0.20;0.20;;;;;;;;;;10350079;28;20228;-76
2023/03/13 14:49:15;;;;;;;0.15;0.15;;;;;;;;;;10310793;28;20647;-78
2023/03/13 14:54:26;;;;;;;0.32;0.15;;;;;;;;;;10339910;28;20220;-77
2023/03/13 14:59:27;;;;;;;0.35;0.15;;;;;;;;;;10366448;28;20281;-77
2023/03/13 15:04:47;;;;;;;0.15;0.15;;;;;;;;;;10335679;28;20942;-77
2023/03/13 15:09:49;;;;;;;0.40;0.25;;;;;;;;;;10333420;28;20223;-76
2023/03/13 15:14:51;;;;;;;0.30;0.20;;;;;;;;;;10342503;28;20302;-76
2023/03/13 15:19:57;;;;;;;0.10;0.10;;;;;;;;;;10360205;28;20705;-79
2023/03/13 15:24:58;;;;;;;0.10;0.10;;;;;;;;;;10339007;28;20346;-76
2023/03/13 15:29:59;;;;;;;0.10;0.10;;;;;;;;;;10334382;28;20211;-79
2023/03/13 15:35:00;;;;;;;0.10;0.10;;;;;;;;;;10344644;28;20216;-78
2023/03/13 15:40:06;;;;;;;1.35;0.15;;;;;;;;;;10348014;28;20872;-78
2023/03/13 15:45:07;;;;;;;0.43;0.10;;;;;;;;;;10326460;28;20212;-78
2023/03/13 15:50:12;;;;;;;0.20;0.20;;;;;;;;;;10343399;28;20231;-78
2023/03/13 15:55:14;;;;;;;0.47;0.13;;;;;;;;;;10325111;28;20961;-78
2023/03/13 16:00:15;;;;;;;0.10;0.10;;;;;;;;;;10334875;28;20296;-76
2023/03/13 16:05:19;;;;;;;0.15;0.15;;;;;;;;;;10338540;28;20298;-79
2023/03/13 16:10:31;;;;;;;0.10;0.10;;;;;;;;;;10344591;28;20523;-78
2023/03/13 16:15:32;;;;;;;0.10;0.10;;;;;;;;;;10337614;28;20223;-78
2023/03/13 16:20:34;;;;;;;0.20;0.20;;;;;;;;;;10341242;28;20223;-78
2023/03/13 16:25:35;;;;;;;0.13;0.13;;;;;;;;;;10348948;28;20227;-77
2023/03/13 16:30:36;;;;;;;0.57;0.20;;;;;;;;;;10332398;28;20599;-77
2023/03/13 16:35:37;;;;;;;0.30;0.30;;;;;;;;;;10349257;28;20499;-78
2023/03/13 16:40:38;;;;;;;0.85;0.40;;;;;;;;;;10336518;28;20515;-79
2023/03/13 16:45:39;;;;;;;0.47;0.35;;;;;;;;;;10341877;28;20215;-77
2023/03/13 16:50:44;;;;;;;1.38;0.50;;;;;;;;;;10356674;28;20215;-78
2023/03/13 16:55:45;;;;;;;0.50;0.50;;;;;;;;;;10337502;28;20583;-77
2023/03/13 17:00:46;;;;;;;1.55;1.55;;;;;;;;;;10340472;28;20711;-78
2023/03/13 17:05:47;;;;;;;0.40;0.40;;;;;;;;;;10352256;28;20672;-76
2023/03/13 17:10:48;;;;;;;0.40;0.40;;;;;;;;;;10334338;28;20220;-78
2023/03/13 17:15:49;;;;;;;0.30;0.30;;;;;;;;;;10341367;28;20222;-79
2023/03/13 17:20:51;;;;;;;0.20;0.20;;;;;;;;;;10325963;28;20723;-79
2023/03/13 17:25:52;;;;;;;0.30;0.30;;;;;;;;;;10328451;28;20620;-80
2023/03/13 17:30:53;;;;;;;0.30;0.30;;;;;;;;;;10366532;28;20634;-78
2023/03/13 17:35:54;;;;;;;0.20;0.20;;;;;;;;;;10347086;28;20220;-75
2023/03/13 17:40:55;;;;;;;0.38;0.38;;;;;;;;;;10347619;28;20712;-79
2023/03/13 17:45:56;;;;;;;0.40;0.40;;;;;;;;;;10361875;28;20237;-79
2023/03/13 17:50:57;;;;;;;0.77;0.30;;;;;;;;;;10364789;28;20219;-79
2023/03/13 17:55:58;;;;;;;0.40;0.30;;;;;;;;;;10332955;28;20736;-79
2023/03/13 18:00:59;;;;;;;0.30;0.30;;;;;;;;;;10352991;28;20227;-79
2023/03/13 18:06:00;;;;;;;0.63;0.40;;;;;;;;;;10328758;28;20223;-78
2023/03/13 18:11:01;;;;;;;0.68;0.47;;;;;;;;;;10340949;28;20596;-79
2023/03/13 18:16:03;;;;;;;0.55;0.55;;;;;;;;;;10333530;28;20288;-79
2023/03/13 18:21:04;;;;;;;1.50;1.50;;;;;;;;;;10350976;28;20216;-80
2023/03/13 18:26:20;;;;;;;1.38;0.90;;;;;;;;;;10344274;28;20223;-79
2023/03/13 18:31:21;;;;;;;2.30;2.10;;;;;;;;;;10338749;28;20274;-79
2023/03/13 18:36:23;;;;;;;1.10;1.10;;;;;;;;;;10382968;28;20311;-81
2023/03/13 18:41:24;;;;;;;1.05;1.00;;;;;;;;;;10347091;28;20231;-80
2023/03/13 18:46:26;;;;;;;0.40;0.40;;;;;;;;;;10341142;28;20735;-82
2023/03/13 18:51:29;;;;;;;0.50;0.50;;;;;;;;;;10339473;28;20215;-79
2023/03/13 18:56:31;;;;;;;0.40;0.40;;;;;;;;;;10335298;28;20224;-80
2023/03/13 19:01:32;;;;;;;0.75;0.75;;;;;;;;;;10356908;28;20223;-78
2023/03/13 19:06:34;;;;;;;0.40;0.40;;;;;;;;;;10346745;28;20322;-81
2023/03/13 19:11:35;;;;;;;0.38;0.38;;;;;;;;;;10336947;28;20251;-81
2023/03/13 19:16:38;;;;;;;0.63;0.50;;;;;;;;;;10361155;28;20215;-82
2023/03/13 19:21:39;;;;;;;1.40;0.40;;;;;;;;;;10355189;28;20238;-80
2023/03/13 19:26:42;;;;;;;0.50;0.50;;;;;;;;;;10356550;28;20286;-79
2023/03/13 19:31:43;;;;;;;0.30;0.30;;;;;;;;;;10355655;28;20228;-78
2023/03/13 19:36:46;;;;;;;0.43;0.43;;;;;;;;;;10353306;28;20215;-80
2023/03/13 19:41:47;;;;;;;0.50;0.50;;;;;;;;;;10342281;28;20215;-80
2023/03/13 19:46:48;;;;;;;0.50;0.50;;;;;;;;;;10338320;28;20309;-79
2023/03/13 19:51:49;;;;;;;1.10;0.50;;;;;;;;;;10342113;28;20211;-79
2023/03/13 19:56:52;;;;;;;0.93;0.50;;;;;;;;;;10336131;28;20220;-78
2023/03/13 20:01:56;;;;;;;2.50;0.50;;;;;;;;;;10339341;28;20223;-79
2023/03/13 20:06:57;;;;;;;0.60;0.60;;;;;;;;;;10354470;28;20712;-78
2023/03/13 20:11:58;;;;;;;0.80;0.80;;;;;;;;;;10349489;28;20219;-79
2023/03/13 20:16:59;;;;;;;1.95;1.08;;;;;;;;;;10349592;28;20226;-76
2023/03/13 20:22:03;;;;;;;1.10;1.10;;;;;;;;;;10318210;28;20313;-76
2023/03/13 20:27:04;;;;;;;3.03;1.33;;;;;;;;;;10339779;28;20227;-79
2023/03/13 20:32:06;;;;;;;1.30;1.30;;;;;;;;;;10346169;28;20218;-78
2023/03/13 20:37:07;;;;;;;1.08;1.08;;;;;;;;;;10364286;28;20240;-78
2023/03/13 20:42:08;;;;;;;0.95;0.80;;;;;;;;;;10362846;28;20243;-77
2023/03/13 20:47:09;;;;;;;1.10;1.10;;;;;;;;;;10366332;28;20224;-77
2023/03/13 20:52:10;;;;;;;1.17;0.95;;;;;;;;;;10347669;28;20211;-78
2023/03/13 20:57:11;;;;;;;1.33;1.30;;;;;;;;;;10343523;28;20673;-77
2023/03/13 21:02:12;;;;;;;1.10;1.10;;;;;;;;;;10351104;28;20323;-78
2023/03/13 21:07:13;;;;;;;1.20;1.00;;;;;;;;;;10365225;28;20715;-79
2023/03/13 21:12:14;;;;;;;1.20;1.15;;;;;;;;;;10362367;28;20220;-78
2023/03/13 21:17:15;;;;;;;0.90;0.85;;;;;;;;;;10346335;28;20303;-78
2023/03/13 21:22:17;;;;;;;1.75;1.33;;;;;;;;;;10366038;28;20244;-78
2023/03/13 21:27:18;;;;;;;0.73;0.73;;;;;;;;;;10366683;28;20223;-79
2023/03/13 21:32:19;;;;;;;0.85;0.80;;;;;;;;;;10351537;28;20227;-78
2023/03/13 21:37:20;;;;;;;0.98;0.75;;;;;;;;;;10361952;28;20627;-78
2023/03/13 21:42:21;;;;;;;4.20;1.05;;;;;;;;;;10347900;28;20215;-76
2023/03/13 21:47:25;;;;;;;2.75;1.10;;;;;;;;;;10334695;28;21034;-78
2023/03/13 21:52:26;;;;;;;1.70;1.48;;;;;;;;;;10344607;28;20219;-77
2023/03/13 21:57:27;;;;;;;0.75;0.73;;;;;;;;;;10364652;28;20216;-78
2023/03/13 22:02:28;;;;;;;2.60;1.00;;;;;;;;;;10351712;28;20693;-78
2023/03/13 22:07:30;;;;;;;1.02;0.93;;;;;;;;;;10357866;28;20773;-76
2023/03/13 22:12:31;;;;;;;0.68;0.50;;;;;;;;;;10336408;28;20208;-78
2023/03/13 22:17:32;;;;;;;1.85;0.80;;;;;;;;;;10346800;28;20310;-77
2023/03/13 22:22:33;;;;;;;1.20;0.80;;;;;;;;;;10349622;28;20921;-79
2023/03/13 22:27:34;;;;;;;0.60;0.60;;;;;;;;;;10367586;28;20685;-78
2023/03/13 22:32:35;;;;;;;1.75;0.50;;;;;;;;;;10361611;28;20231;-78
2023/03/13 22:37:36;;;;;;;0.52;0.50;;;;;;;;;;10330859;28;20294;-78
2023/03/13 22:42:37;;;;;;;0.90;0.90;;;;;;;;;;10368951;28;20216;-78
2023/03/13 22:47:38;;;;;;;0.82;0.60;;;;;;;;;;10335308;28;20285;-78
2023/03/13 22:52:39;;;;;;;1.73;0.70;;;;;;;;;;10336465;28;20219;-77
2023/03/13 22:57:40;;;;;;;0.50;0.50;;;;;;;;;;10368043;28;20223;-77
2023/03/13 23:02:41;;;;;;;0.57;0.57;;;;;;;;;;10343908;28;20737;-77
2023/03/13 23:07:43;;;;;;;0.40;0.40;;;;;;;;;;10368599;28;20585;-75
2023/03/13 23:12:44;;;;;;;0.50;0.50;;;;;;;;;;10361825;28;20223;-77
2023/03/13 23:17:45;;;;;;;0.40;0.40;;;;;;;;;;10354650;28;20223;-77
2023/03/13 23:22:48;;;;;;;0.47;0.47;;;;;;;;;;10354492;28;20230;-78
2023/03/13 23:27:49;;;;;;;0.60;0.55;;;;;;;;;;10337446;28;20645;-77
2023/03/13 23:32:50;;;;;;;0.40;0.40;;;;;;;;;;10354534;28;20235;-77
2023/03/13 23:37:54;;;;;;;1.70;0.60;;;;;;;;;;10352352;28;20216;-78
2023/03/13 23:42:55;;;;;;;0.90;0.88;;;;;;;;;;10362397;28;20215;-78
2023/03/13 23:47:57;;;;;;;0.52;0.52;;;;;;;;;;10349856;28;20231;-77
2023/03/13 23:52:58;;;;;;;0.47;0.47;;;;;;;;;;10351196;28;20222;-77
2023/03/13 23:57:59;;;;;;;1.65;0.88;;;;;;;;;;10367191;28;20219;-77
